Aérodrome :
LOGIN :

S'inscrire | Disclaimer

   EN    FR    IT 

 










Légende :    VFR   VFR Marginal   IFR   IFR Intensif   IFR Très Intensif
Visi : 
Plafond : 
>= 8 km
>= 3000ft
5 à 8 km
1000 à 3000 ft
1500m à 5 km
500 à 1000 ft
800 à 1500m
200 à 500 ft
< 800m
< 200 ft
Symboles :   Orages  Brouillard  Fortes neiges  Fortes précipitations  Vent > 20 kt
SIGMETs :   Divers  Orages  Givrage  Turbulence  Onde Orograph.  Cendres Volcan.






- Altitude de l'aérodrome : 1766 ft


ETHL - Laupheim AB

DERNIER METAR :
  • 060520Z 24006KT 3500 BR BKN003 M01/M02 Q1020 YLO YLO TEMPO AMB

METARs EXPIRÉS :
  • 060420Z 23009KT 3500 BR BKN003 M01/M02 Q1020 YLO
  • 060350Z 24008KT 3500 BR BKN003 M01/M02 Q1020 YLO
  • 060320Z 25007KT 3000 BR BKN002 M01/M02 Q1020 AMB

TAF TAF ETHL
Valide du 06 à 06h jusqu'au 06 à 15h UTC


060520Z 0606/0615 24010KT 3000 BR BKN003
TEMPO 0606/0609 24005KT 1500 BR OVC002
PROB30 0606/0609 VRB03KT 0500 FZFG VV001
BECMG 0609/0611 25010KT 4000 BR BKN007



MET'MAP, la Météo Aéronautique d'un coup d'oeil ! - Copyright ORBIFLY Décembre 2007 - Disclaimer

ORBIFLY MET'MAP TEAM :

Programmation & Développement : Alexandra Zaïnal
Sur une idée originale de : Baudouin d'Aumeries
Assistance à la programmation : Marc-Olivier Méhu
Soutien technique & logistique : Manuel Goepfert

Contact : metmap@orbifly.com




SOURCES & CREDITS :

   NOAA